Time;durP1;ratioP1;P1;durP2;ratioP2;P2;SDS_P1;SDS_P2;PMS_P1;PMS_P2;Temp;Humidity;BMP_temperature;BMP_pressure;BME280_temperature;BME280_humidity;BME280_pressure;Samples;Min_cycle;Max_cycle;Signal;HPM_P1;HPM_P2
2023/03/08 00:01:34;;;;;;;;;;;3.30;99.90;;;;;;5027302;28;20266;-61
2023/03/08 00:04:00;;;;;;;;;;;3.30;99.90;;;;;;5029327;28;20375;-62
2023/03/08 00:06:26;;;;;;;;;;;3.20;99.90;;;;;;5025952;28;19913;-61
2023/03/08 00:08:55;;;;;;;;;;;3.20;99.90;;;;;;5029283;28;19913;-62
2023/03/08 00:11:21;;;;;;;;;;;3.20;99.90;;;;;;5027175;28;19959;-61
2023/03/08 00:13:47;;;;;;;;;;;3.10;99.90;;;;;;5029486;28;19952;-60
2023/03/08 00:16:13;;;;;;;;;;;3.20;99.90;;;;;;5028308;28;19913;-60
2023/03/08 00:18:39;;;;;;;;;;;3.20;99.90;;;;;;5025530;28;19939;-62
2023/03/08 00:21:09;;;;;;;;;;;3.20;99.90;;;;;;5030504;28;19913;-63
2023/03/08 00:23:34;;;;;;;;;;;3.20;99.90;;;;;;5030654;28;20012;-60
2023/03/08 00:26:00;;;;;;;;;;;3.30;99.90;;;;;;5032756;28;20007;-60
2023/03/08 00:28:26;;;;;;;;;;;3.30;99.90;;;;;;5030909;28;20372;-60
2023/03/08 00:30:55;;;;;;;;;;;3.30;99.90;;;;;;5032300;28;19975;-61
2023/03/08 00:33:21;;;;;;;;;;;3.20;99.90;;;;;;5031216;28;19913;-61
2023/03/08 00:35:54;;;;;;;;;;;3.30;99.90;;;;;;5032817;28;19917;-60
2023/03/08 00:38:19;;;;;;;;;;;3.30;99.90;;;;;;5031239;28;19936;-60
2023/03/08 00:40:45;;;;;;;;;;;3.30;99.90;;;;;;5032367;28;20388;-60
2023/03/08 00:43:10;;;;;;;;;;;3.30;99.90;;;;;;5031932;28;19928;-61
2023/03/08 00:45:36;;;;;;;;;;;3.40;99.90;;;;;;5030652;28;19913;-60
2023/03/08 00:48:01;;;;;;;;;;;3.40;99.90;;;;;;5032667;28;19919;-60
2023/03/08 00:50:27;;;;;;;;;;;3.40;99.90;;;;;;5030003;28;19913;-61
2023/03/08 00:52:52;;;;;;;;;;;3.50;99.90;;;;;;5031617;28;19959;-60
2023/03/08 00:55:18;;;;;;;;;;;3.50;99.90;;;;;;5028828;28;19913;-60
2023/03/08 00:57:43;;;;;;;;;;;3.50;99.90;;;;;;5032158;28;20004;-61
2023/03/08 01:00:11;;;;;;;;;;;3.50;99.90;;;;;;5031809;28;19913;-62
2023/03/08 01:02:39;;;;;;;;;;;3.60;99.90;;;;;;5026036;28;19928;-62
2023/03/08 01:05:06;;;;;;;;;;;3.60;99.90;;;;;;5031186;28;20327;-59
2023/03/08 01:07:31;;;;;;;;;;;3.60;99.90;;;;;;5062549;28;19919;-62
2023/03/08 01:09:57;;;;;;;;;;;3.60;99.90;;;;;;5028865;28;19914;-60
2023/03/08 01:12:24;;;;;;;;;;;3.60;99.90;;;;;;5029709;28;20305;-60
2023/03/08 01:14:52;;;;;;;;;;;3.60;99.90;;;;;;5027074;28;19914;-60
2023/03/08 01:17:18;;;;;;;;;;;3.60;99.90;;;;;;5028894;28;19924;-60
2023/03/08 01:19:43;;;;;;;;;;;3.70;99.90;;;;;;5031863;28;19917;-60
2023/03/08 01:22:09;;;;;;;;;;;3.70;99.90;;;;;;5031508;28;19921;-60
2023/03/08 01:24:35;;;;;;;;;;;3.70;99.90;;;;;;5029761;28;20283;-60
2023/03/08 01:27:00;;;;;;;;;;;3.70;99.90;;;;;;5029953;28;19921;-60
2023/03/08 01:29:26;;;;;;;;;;;3.70;99.90;;;;;;5029504;28;19959;-60
2023/03/08 01:31:52;;;;;;;;;;;3.70;99.90;;;;;;5031973;28;20385;-59
2023/03/08 01:34:18;;;;;;;;;;;3.70;99.90;;;;;;5021998;28;19923;-60
2023/03/08 01:36:44;;;;;;;;;;;3.70;99.90;;;;;;5031167;28;19924;-60
2023/03/08 01:39:09;;;;;;;;;;;3.70;99.90;;;;;;5031013;28;19913;-61
2023/03/08 01:41:35;;;;;;;;;;;3.70;99.90;;;;;;5029776;28;19920;-60
2023/03/08 01:44:00;;;;;;;;;;;3.70;99.90;;;;;;5031316;28;19921;-61
2023/03/08 01:46:35;;;;;;;;;;;3.60;99.90;;;;;;5029676;28;19967;-61
2023/03/08 01:49:01;;;;;;;;;;;3.60;99.90;;;;;;5031565;28;19953;-60
2023/03/08 01:51:34;;;;;;;;;;;3.60;99.90;;;;;;5028950;28;20281;-61
2023/03/08 01:54:03;;;;;;;;;;;3.60;99.90;;;;;;5031485;28;20369;-61
2023/03/08 01:56:29;;;;;;;;;;;3.60;99.90;;;;;;5029325;28;19913;-61
2023/03/08 01:58:56;;;;;;;;;;;3.60;99.90;;;;;;5031396;28;19924;-62
2023/03/08 02:01:21;;;;;;;;;;;3.60;99.90;;;;;;5028784;28;19960;-63
2023/03/08 02:03:47;;;;;;;;;;;3.60;99.90;;;;;;5030731;28;19961;-63
2023/03/08 02:06:13;;;;;;;;;;;3.60;99.90;;;;;;5031176;28;20011;-62
2023/03/08 02:08:39;;;;;;;;;;;3.60;99.90;;;;;;5031165;28;20003;-63
2023/03/08 02:11:05;;;;;;;;;;;3.60;99.90;;;;;;5028825;28;20456;-62
2023/03/08 02:13:31;;;;;;;;;;;3.60;99.90;;;;;;5029382;28;19921;-63
2023/03/08 02:15:57;;;;;;;;;;;3.60;99.90;;;;;;5031169;28;19913;-63
2023/03/08 02:18:23;;;;;;;;;;;3.60;99.90;;;;;;5029198;28;19913;-63
2023/03/08 02:20:48;;;;;;;;;;;3.60;99.90;;;;;;5031005;28;19920;-63
2023/03/08 02:23:15;;;;;;;;;;;3.70;99.90;;;;;;5027235;28;19928;-62
2023/03/08 02:26:03;;;;;;;;;;;3.60;99.90;;;;;;5030667;28;19956;-63
2023/03/08 02:28:28;;;;;;;;;;;3.60;99.90;;;;;;5055599;28;19919;-63
2023/03/08 02:30:54;;;;;;;;;;;3.70;99.90;;;;;;5030055;28;19924;-62
2023/03/08 02:33:20;;;;;;;;;;;3.60;99.90;;;;;;5028303;28;19952;-63
2023/03/08 02:35:46;;;;;;;;;;;3.60;99.90;;;;;;5030370;28;19967;-63
2023/03/08 02:38:13;;;;;;;;;;;3.60;99.90;;;;;;5030668;28;19913;-63
2023/03/08 02:40:39;;;;;;;;;;;3.70;99.90;;;;;;5026474;28;19913;-63
2023/03/08 02:43:05;;;;;;;;;;;3.70;99.90;;;;;;5030244;28;19921;-63
2023/03/08 02:45:32;;;;;;;;;;;3.70;99.90;;;;;;5026779;28;19913;-63
2023/03/08 02:47:58;;;;;;;;;;;3.70;99.90;;;;;;5028534;28;19913;-63
2023/03/08 02:50:24;;;;;;;;;;;3.60;99.90;;;;;;5028692;28;19927;-63
2023/03/08 02:52:49;;;;;;;;;;;3.70;99.90;;;;;;5028827;28;19913;-63
2023/03/08 02:55:15;;;;;;;;;;;3.70;99.90;;;;;;5027443;28;20288;-64
2023/03/08 02:57:41;;;;;;;;;;;3.70;99.90;;;;;;5027629;28;19919;-64
2023/03/08 03:00:07;;;;;;;;;;;3.70;99.90;;;;;;5030128;28;20016;-64
2023/03/08 03:02:32;;;;;;;;;;;3.60;99.90;;;;;;5028664;28;20019;-65
2023/03/08 03:04:58;;;;;;;;;;;3.70;99.90;;;;;;5044182;28;20052;-65
2023/03/08 03:07:23;;;;;;;;;;;3.60;99.90;;;;;;5027267;28;20356;-65
2023/03/08 03:09:49;;;;;;;;;;;3.60;99.90;;;;;;5029489;28;19925;-66
2023/03/08 03:12:14;;;;;;;;;;;3.60;99.90;;;;;;5030179;28;19913;-63
2023/03/08 03:14:40;;;;;;;;;;;3.50;99.90;;;;;;5024147;28;19924;-63
2023/03/08 03:17:06;;;;;;;;;;;3.50;99.90;;;;;;5028334;28;19914;-63
2023/03/08 03:19:31;;;;;;;;;;;3.40;99.90;;;;;;5027544;28;19913;-63
2023/03/08 03:21:57;;;;;;;;;;;3.30;99.90;;;;;;5025863;28;19936;-64
2023/03/08 03:24:22;;;;;;;;;;;3.30;99.90;;;;;;5027037;28;20371;-63
2023/03/08 03:26:51;;;;;;;;;;;3.30;99.90;;;;;;5029327;28;19932;-64
2023/03/08 03:29:17;;;;;;;;;;;3.40;99.90;;;;;;5027981;28;19920;-64
2023/03/08 03:31:43;;;;;;;;;;;3.40;99.90;;;;;;5028735;28;19913;-63
2023/03/08 03:34:08;;;;;;;;;;;3.40;99.90;;;;;;5028753;28;19913;-63
2023/03/08 03:36:34;;;;;;;;;;;3.30;99.90;;;;;;5027442;28;20365;-64
2023/03/08 03:38:59;;;;;;;;;;;3.30;99.90;;;;;;5025690;28;21230;-64
2023/03/08 03:41:25;;;;;;;;;;;3.30;99.90;;;;;;5020278;28;19913;-63
2023/03/08 03:43:51;;;;;;;;;;;3.20;99.90;;;;;;5028674;28;20381;-64
2023/03/08 03:46:17;;;;;;;;;;;3.20;99.90;;;;;;5026599;28;19913;-63
2023/03/08 03:48:43;;;;;;;;;;;3.30;99.90;;;;;;5029452;28;19920;-63
2023/03/08 03:51:10;;;;;;;;;;;3.20;99.90;;;;;;5029112;28;19913;-64
2023/03/08 03:53:36;;;;;;;;;;;3.10;99.90;;;;;;5027544;28;19922;-62
2023/03/08 03:56:22;;;;;;;;;;;3.00;99.90;;;;;;5025549;28;19917;-61
2023/03/08 03:58:48;;;;;;;;;;;2.90;99.90;;;;;;5026197;28;19929;-63
2023/03/08 04:01:19;;;;;;;;;;;2.80;99.90;;;;;;5025848;28;19913;-62
2023/03/08 04:03:45;;;;;;;;;;;2.80;99.90;;;;;;5025743;28;19937;-63
2023/03/08 04:06:12;;;;;;;;;;;2.70;99.90;;;;;;5028913;28;20390;-63
2023/03/08 04:08:41;;;;;;;;;;;2.70;99.90;;;;;;5027146;28;19913;-63
2023/03/08 04:11:11;;;;;;;;;;;2.70;99.90;;;;;;5028461;28;19923;-63
2023/03/08 04:13:37;;;;;;;;;;;2.80;99.90;;;;;;5026761;28;19913;-64
2023/03/08 04:16:13;;;;;;;;;;;2.70;99.90;;;;;;5026906;28;19929;-64
2023/03/08 04:18:38;;;;;;;;;;;2.70;99.90;;;;;;5027048;28;19914;-64
2023/03/08 04:21:04;;;;;;;;;;;2.70;99.90;;;;;;5026107;28;19917;-64
2023/03/08 04:23:30;;;;;;;;;;;2.70;99.90;;;;;;5020931;28;19921;-63
2023/03/08 04:25:55;;;;;;;;;;;2.60;99.90;;;;;;5028520;28;19913;-63
2023/03/08 04:28:21;;;;;;;;;;;2.60;99.90;;;;;;5027011;28;19913;-64
2023/03/08 04:30:46;;;;;;;;;;;2.60;99.90;;;;;;5024617;28;19920;-63
2023/03/08 04:33:12;;;;;;;;;;;2.60;99.90;;;;;;5028224;28;19913;-64
2023/03/08 04:35:37;;;;;;;;;;;2.50;99.90;;;;;;5026299;28;19936;-63
2023/03/08 04:38:03;;;;;;;;;;;2.40;99.90;;;;;;5023980;28;19920;-64
2023/03/08 04:40:28;;;;;;;;;;;2.40;99.90;;;;;;5024530;28;20012;-64
2023/03/08 04:42:55;;;;;;;;;;;2.20;99.90;;;;;;5028656;28;20389;-64
2023/03/08 04:45:20;;;;;;;;;;;2.10;99.90;;;;;;5026902;28;20011;-64
2023/03/08 04:47:46;;;;;;;;;;;2.10;99.90;;;;;;5027322;28;20082;-64
2023/03/08 04:50:11;;;;;;;;;;;2.10;99.90;;;;;;5028474;28;19913;-63
2023/03/08 04:52:37;;;;;;;;;;;2.00;99.90;;;;;;5018765;28;20312;-63
2023/03/08 04:55:03;;;;;;;;;;;1.90;99.90;;;;;;5027975;28;19917;-63
2023/03/08 04:57:28;;;;;;;;;;;1.80;99.90;;;;;;5026515;28;19956;-62
2023/03/08 04:59:54;;;;;;;;;;;1.70;99.90;;;;;;5021016;28;19952;-63
2023/03/08 05:02:23;;;;;;;;;;;1.70;99.90;;;;;;5025480;28;20253;-62
2023/03/08 05:04:49;;;;;;;;;;;1.70;99.90;;;;;;5026791;28;19961;-62
2023/03/08 05:07:14;;;;;;;;;;;1.60;99.90;;;;;;5027911;28;19963;-61
2023/03/08 05:09:40;;;;;;;;;;;1.60;99.90;;;;;;5031784;28;20360;-62
2023/03/08 05:12:06;;;;;;;;;;;1.60;99.90;;;;;;5023966;28;19920;-62
2023/03/08 05:14:31;;;;;;;;;;;1.60;99.90;;;;;;5030169;28;19917;-62
2023/03/08 05:16:57;;;;;;;;;;;1.60;99.90;;;;;;5032045;28;19951;-62
2023/03/08 05:19:23;;;;;;;;;;;1.60;99.90;;;;;;5030261;28;20266;-63
2023/03/08 05:21:49;;;;;;;;;;;1.60;99.90;;;;;;5031158;28;19920;-63
2023/03/08 05:24:14;;;;;;;;;;;1.60;99.90;;;;;;5030089;28;19921;-62
2023/03/08 05:26:40;;;;;;;;;;;1.50;99.90;;;;;;5031655;28;19919;-62
2023/03/08 05:29:06;;;;;;;;;;;1.50;99.90;;;;;;5031878;28;20392;-62
2023/03/08 05:31:32;;;;;;;;;;;1.50;99.90;;;;;;5025524;28;19913;-62
2023/03/08 05:33:58;;;;;;;;;;;1.60;99.90;;;;;;5032036;28;19917;-62
2023/03/08 05:36:23;;;;;;;;;;;1.50;99.90;;;;;;5029228;28;20379;-62
2023/03/08 05:38:53;;;;;;;;;;;1.50;99.90;;;;;;5031802;28;20407;-62
2023/03/08 05:41:19;;;;;;;;;;;1.50;99.90;;;;;;5028937;28;20341;-63
2023/03/08 05:43:45;;;;;;;;;;;1.60;99.90;;;;;;5030844;28;20442;-62
2023/03/08 05:46:14;;;;;;;;;;;1.50;99.90;;;;;;5031592;28;19913;-62
2023/03/08 05:48:40;;;;;;;;;;;1.50;99.90;;;;;;5031644;28;19914;-63
2023/03/08 05:51:06;;;;;;;;;;;1.50;99.90;;;;;;5030809;28;19920;-64
2023/03/08 05:53:32;;;;;;;;;;;1.50;99.90;;;;;;5028126;28;19959;-63
2023/03/08 05:56:08;;;;;;;;;;;1.50;99.90;;;;;;5029133;28;19913;-63
2023/03/08 05:58:34;;;;;;;;;;;1.50;99.90;;;;;;5027660;28;19920;-63
2023/03/08 06:01:06;;;;;;;;;;;1.50;99.90;;;;;;5040263;28;19913;-63
2023/03/08 06:03:32;;;;;;;;;;;1.50;99.90;;;;;;5029845;28;21342;-62
2023/03/08 06:05:57;;;;;;;;;;;1.50;99.90;;;;;;5034287;28;20005;-63
2023/03/08 06:08:23;;;;;;;;;;;1.50;99.90;;;;;;5024934;28;19924;-63
2023/03/08 06:10:48;;;;;;;;;;;1.50;99.90;;;;;;5030355;28;19921;-64
2023/03/08 06:13:14;;;;;;;;;;;1.60;99.90;;;;;;5030619;28;19924;-62
2023/03/08 06:15:40;;;;;;;;;;;1.50;99.90;;;;;;5030516;28;19913;-63
2023/03/08 06:18:06;;;;;;;;;;;1.50;99.90;;;;;;5031033;28;20021;-62
2023/03/08 06:20:31;;;;;;;;;;;1.60;99.90;;;;;;5028330;28;19913;-62
2023/03/08 06:22:57;;;;;;;;;;;1.60;99.90;;;;;;5030536;28;19925;-63
2023/03/08 06:25:22;;;;;;;;;;;1.60;99.90;;;;;;5028075;28;19917;-63
2023/03/08 06:27:48;;;;;;;;;;;1.60;99.90;;;;;;5029839;28;19939;-63
2023/03/08 06:30:14;;;;;;;;;;;1.70;99.90;;;;;;5030281;28;19913;-63
2023/03/08 06:32:40;;;;;;;;;;;1.70;99.90;;;;;;5028481;28;20441;-63
2023/03/08 06:35:05;;;;;;;;;;;1.70;99.90;;;;;;5029926;28;19917;-63
2023/03/08 06:37:32;;;;;;;;;;;1.70;99.90;;;;;;5028637;28;19997;-63
2023/03/08 06:39:58;;;;;;;;;;;1.80;99.90;;;;;;5030007;28;19924;-64
2023/03/08 06:42:24;;;;;;;;;;;1.80;99.90;;;;;;5021223;28;19921;-67
2023/03/08 06:44:49;;;;;;;;;;;1.90;99.90;;;;;;5029180;28;19913;-63
2023/03/08 06:47:15;;;;;;;;;;;1.80;99.90;;;;;;5028115;28;20272;-60
2023/03/08 06:49:40;;;;;;;;;;;2.00;99.90;;;;;;5029999;28;20271;-62
2023/03/08 06:52:06;;;;;;;;;;;2.00;99.90;;;;;;5030381;28;20287;-63
2023/03/08 06:54:32;;;;;;;;;;;2.00;99.90;;;;;;5028051;28;19913;-63
2023/03/08 06:56:57;;;;;;;;;;;2.00;99.90;;;;;;5028730;28;19917;-63
2023/03/08 06:59:23;;;;;;;;;;;2.00;99.90;;;;;;5026538;28;20261;-63
2023/03/08 07:01:48;;;;;;;;;;;2.10;99.90;;;;;;5027499;28;20008;-63
2023/03/08 07:04:14;;;;;;;;;;;2.10;99.90;;;;;;5025060;28;19921;-62
2023/03/08 07:06:39;;;;;;;;;;;2.20;99.90;;;;;;5026030;28;19920;-63
2023/03/08 07:09:05;;;;;;;;;;;2.20;99.90;;;;;;5028947;28;19917;-62
2023/03/08 07:11:32;;;;;;;;;;;2.20;99.90;;;;;;5027925;28;19972;-62
2023/03/08 07:13:58;;;;;;;;;;;2.20;99.90;;;;;;5060036;28;19970;-64
2023/03/08 07:16:23;;;;;;;;;;;2.20;99.90;;;;;;5026764;28;19912;-62
2023/03/08 07:18:49;;;;;;;;;;;2.30;99.90;;;;;;5029054;28;20008;-62
2023/03/08 07:21:15;;;;;;;;;;;2.30;99.90;;;;;;5029197;28;20399;-62
2023/03/08 07:23:40;;;;;;;;;;;2.40;99.90;;;;;;5023758;28;19921;-63
2023/03/08 07:26:06;;;;;;;;;;;2.40;99.90;;;;;;5029405;28;19917;-62
2023/03/08 07:28:32;;;;;;;;;;;2.50;99.90;;;;;;5026440;28;20392;-63
2023/03/08 07:30:58;;;;;;;;;;;2.60;99.90;;;;;;5028914;28;19917;-63
2023/03/08 07:33:23;;;;;;;;;;;2.60;99.90;;;;;;5026220;28;20013;-63
2023/03/08 07:35:49;;;;;;;;;;;2.70;99.90;;;;;;5029448;28;19955;-63
2023/03/08 07:38:15;;;;;;;;;;;2.80;99.90;;;;;;5029322;28;19917;-63
2023/03/08 07:40:40;;;;;;;;;;;2.80;99.90;;;;;;5029026;28;20366;-63
2023/03/08 07:43:06;;;;;;;;;;;2.80;99.90;;;;;;5027313;28;19932;-63
2023/03/08 07:45:32;;;;;;;;;;;2.80;99.90;;;;;;5026445;28;19990;-63
2023/03/08 07:47:58;;;;;;;;;;;2.80;99.90;;;;;;5029414;28;19936;-63
2023/03/08 07:50:23;;;;;;;;;;;2.90;99.90;;;;;;5027067;28;20008;-62
2023/03/08 07:52:49;;;;;;;;;;;2.90;99.90;;;;;;5028329;28;19913;-64
2023/03/08 07:55:15;;;;;;;;;;;3.10;99.90;;;;;;5025190;28;19963;-63
2023/03/08 07:57:40;;;;;;;;;;;3.10;99.90;;;;;;5027346;28;19967;-63
2023/03/08 08:00:07;;;;;;;;;;;3.20;99.90;;;;;;5029988;28;19916;-62
2023/03/08 08:02:33;;;;;;;;;;;3.10;99.90;;;;;;5030589;28;19994;-62
2023/03/08 08:04:59;;;;;;;;;;;3.00;99.90;;;;;;5031607;28;20380;-62
2023/03/08 08:07:24;;;;;;;;;;;3.10;99.90;;;;;;5031252;28;19979;-62
2023/03/08 08:09:50;;;;;;;;;;;3.00;99.90;;;;;;5032409;28;19919;-62
2023/03/08 08:12:16;;;;;;;;;;;3.10;99.90;;;;;;5028857;28;19916;-62
2023/03/08 08:14:41;;;;;;;;;;;3.00;99.90;;;;;;5035132;28;19994;-63
2023/03/08 08:17:07;;;;;;;;;;;3.10;99.90;;;;;;5035316;28;19924;-62
2023/03/08 08:19:33;;;;;;;;;;;3.10;99.90;;;;;;5029869;28;19913;-62
2023/03/08 08:21:59;;;;;;;;;;;3.20;99.90;;;;;;5035826;28;20343;-63
2023/03/08 08:24:24;;;;;;;;;;;3.30;99.90;;;;;;5030495;28;19920;-62
2023/03/08 08:26:50;;;;;;;;;;;3.30;99.90;;;;;;5034569;28;20281;-64
2023/03/08 08:29:15;;;;;;;;;;;3.20;99.90;;;;;;5034393;28;19913;-63
2023/03/08 08:31:41;;;;;;;;;;;3.20;99.90;;;;;;5035970;28;19917;-61
2023/03/08 08:34:07;;;;;;;;;;;3.20;99.90;;;;;;5033832;28;19917;-63
2023/03/08 08:36:32;;;;;;;;;;;3.20;99.90;;;;;;5031861;28;19913;-63
2023/03/08 08:38:58;;;;;;;;;;;3.20;99.90;;;;;;5027496;28;19917;-63
2023/03/08 08:41:24;;;;;;;;;;;3.20;99.90;;;;;;5022875;28;19966;-63
2023/03/08 08:43:49;;;;;;;;;;;3.30;99.90;;;;;;5034685;28;19925;-63
2023/03/08 08:46:15;;;;;;;;;;;3.30;99.90;;;;;;5037415;28;19917;-63
2023/03/08 08:48:41;;;;;;;;;;;3.20;99.90;;;;;;5038353;28;20331;-62
2023/03/08 08:51:08;;;;;;;;;;;3.30;99.90;;;;;;5036976;28;19921;-63
2023/03/08 08:53:33;;;;;;;;;;;3.30;99.90;;;;;;5032452;28;19960;-63
2023/03/08 08:56:08;;;;;;;;;;;3.30;99.90;;;;;;5034710;28;19913;-63
2023/03/08 08:58:34;;;;;;;;;;;3.30;99.90;;;;;;5036067;28;19917;-62
2023/03/08 09:00:59;;;;;;;;;;;3.40;99.90;;;;;;5032099;28;19921;-62
2023/03/08 09:03:25;;;;;;;;;;;3.50;99.90;;;;;;5035395;28;20342;-63
2023/03/08 09:05:50;;;;;;;;;;;3.50;99.90;;;;;;5044482;28;20475;-63
2023/03/08 09:08:16;;;;;;;;;;;3.60;99.90;;;;;;5040853;28;19919;-62
2023/03/08 09:10:41;;;;;;;;;;;3.60;99.90;;;;;;5037769;28;19913;-62
2023/03/08 09:13:07;;;;;;;;;;;3.60;99.90;;;;;;5038014;28;19917;-63
2023/03/08 09:15:33;;;;;;;;;;;3.70;99.90;;;;;;5030578;28;19913;-63
2023/03/08 09:18:00;;;;;;;;;;;3.70;99.90;;;;;;5032131;28;20373;-63
2023/03/08 09:20:26;;;;;;;;;;;3.80;99.90;;;;;;5029292;28;19924;-63
2023/03/08 09:22:51;;;;;;;;;;;3.80;99.90;;;;;;5030715;28;19921;-63
2023/03/08 09:25:19;;;;;;;;;;;3.90;99.90;;;;;;5029666;28;20284;-63
2023/03/08 09:27:45;;;;;;;;;;;3.90;99.90;;;;;;5027263;28;19920;-63
2023/03/08 09:30:11;;;;;;;;;;;3.90;99.90;;;;;;5024958;28;19913;-63
2023/03/08 09:32:37;;;;;;;;;;;3.90;99.90;;;;;;5030209;28;19914;-64
2023/03/08 09:35:04;;;;;;;;;;;3.80;99.90;;;;;;5026979;28;19920;-63
2023/03/08 09:37:29;;;;;;;;;;;3.80;99.90;;;;;;5026490;28;20320;-62
2023/03/08 09:39:55;;;;;;;;;;;3.80;99.90;;;;;;5031689;28;19975;-62
2023/03/08 09:42:23;;;;;;;;;;;3.90;99.90;;;;;;5028812;28;19994;-62
2023/03/08 09:44:57;;;;;;;;;;;4.00;99.90;;;;;;5025672;28;19975;-63
2023/03/08 09:47:28;;;;;;;;;;;3.90;99.90;;;;;;5028756;28;19920;-63
2023/03/08 09:49:57;;;;;;;;;;;3.90;99.90;;;;;;5030561;28;20008;-63
2023/03/08 09:52:42;;;;;;;;;;;4.00;99.90;;;;;;5038426;28;19948;-62
2023/03/08 09:55:19;;;;;;;;;;;4.00;99.90;;;;;;5029886;28;20284;-62
2023/03/08 09:57:47;;;;;;;;;;;3.90;99.90;;;;;;5026622;28;19913;-62
2023/03/08 10:00:18;;;;;;;;;;;3.90;99.90;;;;;;5030499;28;19939;-62
2023/03/08 10:02:43;;;;;;;;;;;4.00;99.90;;;;;;5030305;28;20372;-62
2023/03/08 10:05:15;;;;;;;;;;;3.90;99.90;;;;;;5031111;28;19920;-62
2023/03/08 10:07:56;;;;;;;;;;;4.00;99.90;;;;;;5026125;28;19917;-63
2023/03/08 10:10:41;;;;;;;;;;;4.10;99.90;;;;;;5028335;28;20357;-63
2023/03/08 10:13:10;;;;;;;;;;;4.10;99.90;;;;;;5027703;28;20331;-63
2023/03/08 10:15:39;;;;;;;;;;;4.40;99.90;;;;;;5028714;28;20525;-64
2023/03/08 10:18:22;;;;;;;;;;;4.50;99.90;;;;;;5030592;28;19914;-65
2023/03/08 10:20:48;;;;;;;;;;;4.50;99.90;;;;;;5030923;28;19999;-64
2023/03/08 10:23:18;;;;;;;;;;;4.60;99.90;;;;;;5033785;28;20357;-62
2023/03/08 10:25:44;;;;;;;;;;;4.60;99.90;;;;;;5032947;28;19920;-62
2023/03/08 10:28:15;;;;;;;;;;;4.40;99.90;;;;;;5030540;28;19909;-63
2023/03/08 10:30:51;;;;;;;;;;;4.50;99.90;;;;;;5028449;28;19920;-63
2023/03/08 10:33:17;;;;;;;;;;;4.70;99.90;;;;;;5024281;28;20291;-63
2023/03/08 10:35:58;;;;;;;;;;;4.50;99.90;;;;;;5033897;28;20275;-64
2023/03/08 10:38:26;;;;;;;;;;;4.50;99.90;;;;;;5027251;28;19917;-63
2023/03/08 10:41:01;;;;;;;;;;;4.60;99.90;;;;;;5034677;28;19917;-62
2023/03/08 10:43:29;;;;;;;;;;;4.40;99.90;;;;;;5029217;28;20016;-63
2023/03/08 10:46:04;;;;;;;;;;;4.50;99.90;;;;;;5029058;28;19913;-66
2023/03/08 10:48:30;;;;;;;;;;;4.60;99.90;;;;;;5029003;28;19999;-63
2023/03/08 10:51:00;;;;;;;;;;;4.70;99.90;;;;;;5026733;28;20003;-64
2023/03/08 10:53:28;;;;;;;;;;;4.60;99.90;;;;;;5027425;28;20028;-63
2023/03/08 10:55:54;;;;;;;;;;;4.60;99.90;;;;;;5025033;28;19913;-64
2023/03/08 10:58:25;;;;;;;;;;;4.60;99.90;;;;;;5018342;28;19913;-63
2023/03/08 11:00:53;;;;;;;;;;;4.60;99.90;;;;;;5028359;28;19913;-63
2023/03/08 11:03:19;;;;;;;;;;;4.50;99.90;;;;;;5025781;28;19975;-63
2023/03/08 11:05:51;;;;;;;;;;;4.50;99.90;;;;;;5028969;28;20363;-63
2023/03/08 11:08:19;;;;;;;;;;;4.50;99.90;;;;;;5029276;28;19944;-63
2023/03/08 11:10:44;;;;;;;;;;;4.60;99.90;;;;;;5027854;28;20000;-64
2023/03/08 11:13:13;;;;;;;;;;;4.60;99.90;;;;;;5028098;28;19992;-64
2023/03/08 11:15:41;;;;;;;;;;;4.70;99.90;;;;;;5026867;28;20352;-64
2023/03/08 11:18:16;;;;;;;;;;;4.60;99.90;;;;;;5029225;28;20331;-63
2023/03/08 11:20:46;;;;;;;;;;;4.70;99.90;;;;;;5026351;28;19913;-64
2023/03/08 11:23:18;;;;;;;;;;;4.80;99.90;;;;;;5025244;28;19921;-63
2023/03/08 11:25:45;;;;;;;;;;;4.70;99.90;;;;;;5027065;28;19913;-62
2023/03/08 11:28:13;;;;;;;;;;;4.80;99.90;;;;;;5027468;28;20268;-62
2023/03/08 11:31:08;;;;;;;;;;;4.70;99.90;;;;;;5026317;28;19913;-63
2023/03/08 11:33:52;;;;;;;;;;;4.80;99.90;;;;;;5010672;28;20373;-63
2023/03/08 11:36:17;;;;;;;;;;;4.80;99.90;;;;;;5024598;28;19913;-64
2023/03/08 11:38:44;;;;;;;;;;;4.90;99.90;;;;;;5028800;28;19927;-64
2023/03/08 11:41:25;;;;;;;;;;;4.80;99.90;;;;;;5026646;28;20343;-63
2023/03/08 11:43:57;;;;;;;;;;;4.80;99.90;;;;;;5026360;28;19921;-63
2023/03/08 11:46:26;;;;;;;;;;;5.00;99.90;;;;;;5020721;28;19994;-65
2023/03/08 11:49:10;;;;;;;;;;;5.00;99.90;;;;;;5035169;28;20381;-64
2023/03/08 11:51:54;;;;;;;;;;;5.00;99.90;;;;;;5022856;28;21017;-62
2023/03/08 11:54:35;;;;;;;;;;;4.90;99.90;;;;;;5022013;28;19913;-63
2023/03/08 11:57:07;;;;;;;;;;;4.90;99.90;;;;;;5021567;28;19913;-65
2023/03/08 11:59:34;;;;;;;;;;;4.80;99.90;;;;;;5021849;28;20426;-65
2023/03/08 12:02:03;;;;;;;;;;;4.90;99.90;;;;;;5026639;28;20352;-65
2023/03/08 12:04:35;;;;;;;;;;;5.10;99.90;;;;;;5023792;28;20292;-65
2023/03/08 12:07:04;;;;;;;;;;;5.00;99.90;;;;;;5029896;28;20380;-64
2023/03/08 12:09:39;;;;;;;;;;;4.90;99.90;;;;;;5024337;28;19913;-66
2023/03/08 12:12:13;;;;;;;;;;;4.90;99.90;;;;;;5024131;28;19913;-66
2023/03/08 12:15:02;;;;;;;;;;;4.80;99.90;;;;;;5020863;28;19923;-65
2023/03/08 12:17:31;;;;;;;;;;;5.00;99.90;;;;;;4995964;28;19960;-63
2023/03/08 12:19:56;;;;;;;;;;;4.90;99.90;;;;;;5004336;28;19922;-65
2023/03/08 12:22:32;;;;;;;;;;;4.80;99.90;;;;;;5003638;28;19979;-64
2023/03/08 12:25:06;;;;;;;;;;;4.90;99.90;;;;;;5009041;28;19922;-66
2023/03/08 12:27:38;;;;;;;;;;;4.90;99.90;;;;;;4999503;28;19920;-65
2023/03/08 12:30:09;;;;;;;;;;;4.90;99.90;;;;;;5005609;28;20051;-66
2023/03/08 12:32:39;;;;;;;;;;;4.80;99.90;;;;;;5001085;28;19959;-65
2023/03/08 12:35:06;;;;;;;;;;;4.90;99.90;;;;;;5007038;28;19914;-65
2023/03/08 12:37:32;;;;;;;;;;;4.90;99.90;;;;;;5002785;28;19957;-64
2023/03/08 12:40:07;;;;;;;;;;;5.00;99.90;;;;;;5004878;28;19913;-63
2023/03/08 12:42:39;;;;;;;;;;;5.00;99.90;;;;;;5005711;28;20421;-64
2023/03/08 12:45:06;;;;;;;;;;;5.10;99.90;;;;;;5006929;28;20004;-65
2023/03/08 12:47:32;;;;;;;;;;;5.10;99.90;;;;;;4994839;28;20385;-64
2023/03/08 12:50:05;;;;;;;;;;;5.00;99.90;;;;;;5005793;28;20020;-65
2023/03/08 12:52:33;;;;;;;;;;;4.90;99.90;;;;;;5003585;28;19921;-64
2023/03/08 12:54:59;;;;;;;;;;;5.00;99.90;;;;;;5008093;28;19918;-66
2023/03/08 12:57:32;;;;;;;;;;;4.90;99.90;;;;;;5006572;28;19920;-65
2023/03/08 13:00:05;;;;;;;;;;;5.00;99.90;;;;;;5003666;28;19949;-65
2023/03/08 13:02:33;;;;;;;;;;;5.00;99.90;;;;;;5007697;28;19933;-64
2023/03/08 13:05:01;;;;;;;;;;;5.20;99.90;;;;;;5010569;28;19917;-66
2023/03/08 13:07:30;;;;;;;;;;;5.20;99.90;;;;;;5003887;28;20406;-65
2023/03/08 13:09:56;;;;;;;;;;;5.20;99.90;;;;;;5008836;28;19925;-65
2023/03/08 13:12:28;;;;;;;;;;;5.20;99.90;;;;;;5006826;28;19913;-66
2023/03/08 13:14:57;;;;;;;;;;;5.30;99.90;;;;;;5010034;28;19920;-65
2023/03/08 13:17:32;;;;;;;;;;;5.40;99.90;;;;;;5007958;28;20301;-65
2023/03/08 13:20:00;;;;;;;;;;;5.40;99.90;;;;;;5006586;28;19920;-64
2023/03/08 13:22:41;;;;;;;;;;;5.30;99.90;;;;;;5007280;28;20034;-66
2023/03/08 13:25:36;;;;;;;;;;;5.20;99.90;;;;;;5010333;28;20243;-63
2023/03/08 13:28:07;;;;;;;;;;;5.30;99.90;;;;;;5016719;28;19967;-64
2023/03/08 13:30:33;;;;;;;;;;;5.40;99.90;;;;;;5016034;28;19921;-66
2023/03/08 13:32:59;;;;;;;;;;;5.40;99.90;;;;;;5019382;28;19917;-64
2023/03/08 13:35:25;;;;;;;;;;;5.50;99.90;;;;;;5017766;28;20316;-64
2023/03/08 13:37:51;;;;;;;;;;;5.70;99.90;;;;;;5018331;28;19917;-64
2023/03/08 13:40:18;;;;;;;;;;;5.80;99.90;;;;;;5017454;28;20015;-64
2023/03/08 13:42:56;;;;;;;;;;;5.80;99.90;;;;;;5019902;28;19930;-64
2023/03/08 13:45:22;;;;;;;;;;;5.80;99.90;;;;;;5013722;28;19967;-64
2023/03/08 13:47:48;;;;;;;;;;;5.80;99.90;;;;;;5021323;28;19913;-64
2023/03/08 13:50:19;;;;;;;;;;;5.70;99.90;;;;;;5013820;28;19929;-64
2023/03/08 13:52:44;;;;;;;;;;;5.60;99.90;;;;;;5018024;28;19951;-64
2023/03/08 13:55:18;;;;;;;;;;;5.50;99.90;;;;;;5022744;28;19913;-64
2023/03/08 13:57:46;;;;;;;;;;;5.50;99.90;;;;;;5017127;28;19921;-64
2023/03/08 14:00:18;;;;;;;;;;;5.40;99.90;;;;;;5018435;28;20007;-64
2023/03/08 14:02:44;;;;;;;;;;;5.40;99.90;;;;;;5022209;28;20100;-64
2023/03/08 14:05:17;;;;;;;;;;;5.50;99.90;;;;;;5008061;28;19921;-64
2023/03/08 14:07:43;;;;;;;;;;;5.50;99.90;;;;;;5035234;28;19987;-65
2023/03/08 14:10:12;;;;;;;;;;;5.50;99.90;;;;;;5011075;28;20288;-64
2023/03/08 14:12:38;;;;;;;;;;;5.50;99.90;;;;;;5005735;28;19925;-64
2023/03/08 14:15:04;;;;;;;;;;;5.50;99.90;;;;;;5004279;28;19918;-65
2023/03/08 14:17:31;;;;;;;;;;;5.60;99.90;;;;;;5006212;28;19930;-64
2023/03/08 14:19:58;;;;;;;;;;;5.70;99.90;;;;;;5009101;28;20050;-63
2023/03/08 14:22:25;;;;;;;;;;;5.90;99.90;;;;;;5030823;28;20254;-63
2023/03/08 14:24:54;;;;;;;;;;;6.10;99.90;;;;;;5007385;28;19921;-64
2023/03/08 14:27:20;;;;;;;;;;;6.10;99.90;;;;;;5000235;28;19914;-63
2023/03/08 14:29:46;;;;;;;;;;;6.20;99.90;;;;;;5006771;28;19963;-65
2023/03/08 14:32:11;;;;;;;;;;;5.90;99.90;;;;;;5000538;28;20366;-66
2023/03/08 14:34:38;;;;;;;;;;;5.80;99.90;;;;;;5003373;28;19924;-65